Station: EBLB - 15/12/2018 00:55Z (il y a 18 minutes)
EBLB 150055Z AUTO VRB01KT 9999 OVC019/// M04/M08 Q1022 WHT
Vent de direction variable: 1 kt
Visibilité > 10 km
Ciel couvert à 1900 pieds
Température: -04ºC - Point de rosée: -08ºC - QNH: 1022 hPa
Code couleur militaire: WHT (conditions VMC)